sensor_id;sensor_type;location;lat;lon;timestamp;P1;durP1;ratioP1;P2;durP2;ratioP2
54917;SDS011;40818;50.562;7.454;2023-06-22T00:01:11;6.28;;;2.08;;
54917;SDS011;40818;50.562;7.454;2023-06-22T00:11:17;6.30;;;2.47;;
54917;SDS011;40818;50.562;7.454;2023-06-22T00:21:23;5.47;;;2.42;;
54917;SDS011;40818;50.562;7.454;2023-06-22T00:31:29;4.47;;;1.73;;
54917;SDS011;40818;50.562;7.454;2023-06-22T00:41:32;3.83;;;1.63;;
54917;SDS011;40818;50.562;7.454;2023-06-22T00:51:41;4.57;;;2.13;;
54917;SDS011;40818;50.562;7.454;2023-06-22T01:01:48;3.45;;;1.70;;
54917;SDS011;40818;50.562;7.454;2023-06-22T01:11:56;3.90;;;1.70;;
54917;SDS011;40818;50.562;7.454;2023-06-22T01:22:05;3.78;;;2.10;;
54917;SDS011;40818;50.562;7.454;2023-06-22T01:32:14;4.57;;;1.77;;
54917;SDS011;40818;50.562;7.454;2023-06-22T01:42:18;3.60;;;2.03;;
54917;SDS011;40818;50.562;7.454;2023-06-22T01:52:25;3.38;;;1.88;;
54917;SDS011;40818;50.562;7.454;2023-06-22T02:02:32;5.85;;;1.98;;
54917;SDS011;40818;50.562;7.454;2023-06-22T02:12:42;7.68;;;2.75;;
54917;SDS011;40818;50.562;7.454;2023-06-22T02:22:47;4.90;;;3.60;;
54917;SDS011;40818;50.562;7.454;2023-06-22T02:32:53;4.35;;;2.85;;
54917;SDS011;40818;50.562;7.454;2023-06-22T02:42:58;7.05;;;3.13;;
54917;SDS011;40818;50.562;7.454;2023-06-22T02:53:05;5.32;;;3.15;;
54917;SDS011;40818;50.562;7.454;2023-06-22T03:03:12;6.60;;;4.13;;
54917;SDS011;40818;50.562;7.454;2023-06-22T03:13:19;9.68;;;3.75;;
54917;SDS011;40818;50.562;7.454;2023-06-22T03:23:25;5.90;;;4.57;;
54917;SDS011;40818;50.562;7.454;2023-06-22T03:33:31;9.25;;;5.32;;
54917;SDS011;40818;50.562;7.454;2023-06-22T03:43:35;5.60;;;5.07;;
54917;SDS011;40818;50.562;7.454;2023-06-22T03:53:41;10.65;;;5.05;;
54917;SDS011;40818;50.562;7.454;2023-06-22T04:03:44;8.13;;;5.15;;
54917;SDS011;40818;50.562;7.454;2023-06-22T04:13:52;9.57;;;6.00;;
54917;SDS011;40818;50.562;7.454;2023-06-22T04:23:55;6.97;;;4.35;;
54917;SDS011;40818;50.562;7.454;2023-06-22T04:34:01;6.05;;;4.32;;
54917;SDS011;40818;50.562;7.454;2023-06-22T04:44:06;5.88;;;3.97;;
54917;SDS011;40818;50.562;7.454;2023-06-22T04:54:12;5.18;;;3.33;;
54917;SDS011;40818;50.562;7.454;2023-06-22T05:04:15;5.53;;;4.32;;
54917;SDS011;40818;50.562;7.454;2023-06-22T05:14:22;5.25;;;4.07;;
54917;SDS011;40818;50.562;7.454;2023-06-22T05:24:25;5.82;;;5.07;;
54917;SDS011;40818;50.562;7.454;2023-06-22T05:34:31;4.88;;;3.58;;
54917;SDS011;40818;50.562;7.454;2023-06-22T05:44:35;4.53;;;4.03;;
54917;SDS011;40818;50.562;7.454;2023-06-22T05:54:43;3.85;;;2.53;;
54917;SDS011;40818;50.562;7.454;2023-06-22T06:04:47;4.22;;;3.10;;
54917;SDS011;40818;50.562;7.454;2023-06-22T06:14:54;4.53;;;3.10;;
54917;SDS011;40818;50.562;7.454;2023-06-22T06:24:57;5.97;;;2.70;;
54917;SDS011;40818;50.562;7.454;2023-06-22T06:35:04;5.43;;;2.72;;
54917;SDS011;40818;50.562;7.454;2023-06-22T06:45:09;8.13;;;4.38;;
54917;SDS011;40818;50.562;7.454;2023-06-22T06:55:15;7.07;;;3.55;;
54917;SDS011;40818;50.562;7.454;2023-06-22T07:05:20;9.77;;;3.97;;
54917;SDS011;40818;50.562;7.454;2023-06-22T07:15:26;8.38;;;5.25;;
54917;SDS011;40818;50.562;7.454;2023-06-22T07:25:30;4.68;;;3.03;;
54917;SDS011;40818;50.562;7.454;2023-06-22T07:35:36;7.97;;;2.00;;
54917;SDS011;40818;50.562;7.454;2023-06-22T07:45:39;6.57;;;3.00;;
54917;SDS011;40818;50.562;7.454;2023-06-22T07:55:47;5.93;;;2.25;;
54917;SDS011;40818;50.562;7.454;2023-06-22T08:05:50;4.95;;;2.60;;
54917;SDS011;40818;50.562;7.454;2023-06-22T08:15:56;8.52;;;2.53;;
54917;SDS011;40818;50.562;7.454;2023-06-22T08:26:00;4.03;;;2.28;;
54917;SDS011;40818;50.562;7.454;2023-06-22T08:36:06;4.88;;;2.85;;
54917;SDS011;40818;50.562;7.454;2023-06-22T08:46:11;4.28;;;2.22;;
54917;SDS011;40818;50.562;7.454;2023-06-22T08:56:17;6.20;;;2.05;;
54917;SDS011;40818;50.562;7.454;2023-06-22T09:06:21;6.28;;;1.75;;
54917;SDS011;40818;50.562;7.454;2023-06-22T09:16:27;5.68;;;2.72;;
54917;SDS011;40818;50.562;7.454;2023-06-22T09:26:31;6.00;;;2.22;;
54917;SDS011;40818;50.562;7.454;2023-06-22T09:36:37;4.18;;;2.55;;
54917;SDS011;40818;50.562;7.454;2023-06-22T09:46:41;4.40;;;2.30;;
54917;SDS011;40818;50.562;7.454;2023-06-22T09:56:51;3.40;;;1.80;;
54917;SDS011;40818;50.562;7.454;2023-06-22T10:06:55;10.10;;;2.55;;
54917;SDS011;40818;50.562;7.454;2023-06-22T10:17:02;6.85;;;3.30;;
54917;SDS011;40818;50.562;7.454;2023-06-22T10:27:07;5.72;;;2.53;;
54917;SDS011;40818;50.562;7.454;2023-06-22T10:37:13;8.38;;;2.55;;
54917;SDS011;40818;50.562;7.454;2023-06-22T10:47:16;8.35;;;3.58;;
54917;SDS011;40818;50.562;7.454;2023-06-22T10:57:22;5.68;;;3.33;;
54917;SDS011;40818;50.562;7.454;2023-06-22T11:07:26;8.02;;;2.90;;
54917;SDS011;40818;50.562;7.454;2023-06-22T11:17:32;5.63;;;3.20;;
54917;SDS011;40818;50.562;7.454;2023-06-22T11:27:35;2.88;;;1.02;;
54917;SDS011;40818;50.562;7.454;2023-06-22T11:37:42;2.92;;;1.10;;
54917;SDS011;40818;50.562;7.454;2023-06-22T11:47:45;2.45;;;0.70;;
54917;SDS011;40818;50.562;7.454;2023-06-22T11:57:55;2.50;;;0.45;;
54917;SDS011;40818;50.562;7.454;2023-06-22T12:08:00;2.40;;;0.43;;
54917;SDS011;40818;50.562;7.454;2023-06-22T12:18:06;2.15;;;0.45;;
54917;SDS011;40818;50.562;7.454;2023-06-22T12:28:10;1.88;;;0.50;;
54917;SDS011;40818;50.562;7.454;2023-06-22T12:38:16;3.70;;;0.40;;
54917;SDS011;40818;50.562;7.454;2023-06-22T12:48:20;1.83;;;0.50;;
54917;SDS011;40818;50.562;7.454;2023-06-22T12:58:27;3.30;;;0.70;;
54917;SDS011;40818;50.562;7.454;2023-06-22T13:08:31;5.25;;;0.80;;
54917;SDS011;40818;50.562;7.454;2023-06-22T13:18:37;4.60;;;0.90;;
54917;SDS011;40818;50.562;7.454;2023-06-22T13:28:40;3.70;;;1.08;;
54917;SDS011;40818;50.562;7.454;2023-06-22T13:38:46;3.38;;;1.00;;
54917;SDS011;40818;50.562;7.454;2023-06-22T13:48:50;5.13;;;0.90;;
54917;SDS011;40818;50.562;7.454;2023-06-22T13:58:56;2.97;;;1.10;;
54917;SDS011;40818;50.562;7.454;2023-06-22T14:08:59;4.55;;;1.30;;
54917;SDS011;40818;50.562;7.454;2023-06-22T14:19:05;3.10;;;1.38;;
54917;SDS011;40818;50.562;7.454;2023-06-22T14:29:09;3.83;;;1.30;;
54917;SDS011;40818;50.562;7.454;2023-06-22T14:39:15;6.25;;;0.30;;
54917;SDS011;40818;50.562;7.454;2023-06-22T14:49:18;10.18;;;0.98;;
54917;SDS011;40818;50.562;7.454;2023-06-22T14:59:24;6.88;;;0.70;;
54917;SDS011;40818;50.562;7.454;2023-06-22T15:09:28;3.42;;;0.50;;
54917;SDS011;40818;50.562;7.454;2023-06-22T15:19:34;4.65;;;0.60;;
54917;SDS011;40818;50.562;7.454;2023-06-22T15:29:38;2.25;;;0.50;;
54917;SDS011;40818;50.562;7.454;2023-06-22T15:39:44;3.75;;;0.50;;
54917;SDS011;40818;50.562;7.454;2023-06-22T15:49:48;3.28;;;0.50;;
54917;SDS011;40818;50.562;7.454;2023-06-22T15:59:54;3.75;;;0.50;;
54917;SDS011;40818;50.562;7.454;2023-06-22T16:09:58;4.47;;;0.50;;
54917;SDS011;40818;50.562;7.454;2023-06-22T16:20:04;1.80;;;0.50;;
54917;SDS011;40818;50.562;7.454;2023-06-22T16:30:08;3.33;;;0.50;;
54917;SDS011;40818;50.562;7.454;2023-06-22T16:40:15;3.30;;;0.60;;
54917;SDS011;40818;50.562;7.454;2023-06-22T16:50:20;7.10;;;0.70;;
54917;SDS011;40818;50.562;7.454;2023-06-22T17:00:26;7.72;;;0.70;;
54917;SDS011;40818;50.562;7.454;2023-06-22T17:10:31;6.10;;;0.80;;
54917;SDS011;40818;50.562;7.454;2023-06-22T17:20:37;4.97;;;0.80;;
54917;SDS011;40818;50.562;7.454;2023-06-22T17:30:41;8.38;;;1.13;;
54917;SDS011;40818;50.562;7.454;2023-06-22T17:40:47;3.03;;;0.80;;
54917;SDS011;40818;50.562;7.454;2023-06-22T17:50:51;6.85;;;0.90;;
54917;SDS011;40818;50.562;7.454;2023-06-22T18:00:57;3.67;;;0.90;;
54917;SDS011;40818;50.562;7.454;2023-06-22T18:11:00;7.25;;;0.80;;
54917;SDS011;40818;50.562;7.454;2023-06-22T18:21:09;2.25;;;0.80;;
54917;SDS011;40818;50.562;7.454;2023-06-22T18:31:13;9.52;;;0.80;;
54917;SDS011;40818;50.562;7.454;2023-06-22T18:41:23;3.22;;;0.60;;
54917;SDS011;40818;50.562;7.454;2023-06-22T19:02:02;1.77;;;0.40;;
54917;SDS011;40818;50.562;7.454;2023-06-22T19:22:52;3.72;;;0.40;;
54917;SDS011;40818;50.562;7.454;2023-06-22T19:32:58;0.60;;;0.20;;
54917;SDS011;40818;50.562;7.454;2023-06-22T19:43:10;0.40;;;0.20;;
54917;SDS011;40818;50.562;7.454;2023-06-22T19:53:15;1.92;;;0.40;;
54917;SDS011;40818;50.562;7.454;2023-06-22T20:03:25;6.05;;;0.50;;
54917;SDS011;40818;50.562;7.454;2023-06-22T20:13:30;4.22;;;0.30;;
54917;SDS011;40818;50.562;7.454;2023-06-22T20:23:36;1.98;;;0.10;;
54917;SDS011;40818;50.562;7.454;2023-06-22T20:33:39;0.30;;;0.10;;
54917;SDS011;40818;50.562;7.454;2023-06-22T20:43:45;5.88;;;0.30;;
54917;SDS011;40818;50.562;7.454;2023-06-22T20:53:55;3.33;;;0.80;;
54917;SDS011;40818;50.562;7.454;2023-06-22T21:04:01;2.97;;;0.80;;
54917;SDS011;40818;50.562;7.454;2023-06-22T21:14:05;5.28;;;1.80;;
54917;SDS011;40818;50.562;7.454;2023-06-22T21:24:11;4.50;;;1.50;;
54917;SDS011;40818;50.562;7.454;2023-06-22T21:34:14;5.30;;;1.90;;
54917;SDS011;40818;50.562;7.454;2023-06-22T21:44:20;3.90;;;1.95;;
54917;SDS011;40818;50.562;7.454;2023-06-22T21:54:23;3.72;;;1.70;;
54917;SDS011;40818;50.562;7.454;2023-06-22T22:04:29;3.42;;;1.73;;
54917;SDS011;40818;50.562;7.454;2023-06-22T22:14:33;4.35;;;1.40;;
54917;SDS011;40818;50.562;7.454;2023-06-22T22:24:39;6.68;;;2.10;;
54917;SDS011;40818;50.562;7.454;2023-06-22T22:34:42;4.45;;;2.50;;
54917;SDS011;40818;50.562;7.454;2023-06-22T22:44:48;6.20;;;2.70;;
54917;SDS011;40818;50.562;7.454;2023-06-22T22:54:51;34.55;;;6.90;;
54917;SDS011;40818;50.562;7.454;2023-06-22T23:04:58;4.60;;;1.95;;
54917;SDS011;40818;50.562;7.454;2023-06-22T23:15:02;3.20;;;1.42;;
54917;SDS011;40818;50.562;7.454;2023-06-22T23:25:09;5.65;;;1.40;;
54917;SDS011;40818;50.562;7.454;2023-06-22T23:35:12;4.78;;;1.48;;
54917;SDS011;40818;50.562;7.454;2023-06-22T23:45:19;7.32;;;1.65;;
54917;SDS011;40818;50.562;7.454;2023-06-22T23:55:23;6.78;;;3.78;;
